Time;durP1;ratioP1;P1;durP2;ratioP2;P2;SDS_P1;SDS_P2;PMS_P1;PMS_P2;Temp;Humidity;BMP_temperature;BMP_pressure;BME280_temperature;BME280_humidity;BME280_pressure;Samples;Min_cycle;Max_cycle;Signal;HPM_P1;HPM_P2
2022/06/23 00:01:49;;;;;;;2.90;2.70;;;24.70;56.40;;;;;;5041883;28;20440;-83
2022/06/23 00:04:20;;;;;;;3.50;3.20;;;24.60;56.70;;;;;;5056814;28;20479;-82
2022/06/23 00:07:02;;;;;;;2.90;2.70;;;24.40;56.80;;;;;;5062789;28;20487;-84
2022/06/23 00:09:34;;;;;;;3.47;2.97;;;24.20;56.50;;;;;;5061056;28;20448;-84
2022/06/23 00:12:19;;;;;;;3.10;2.80;;;24.10;55.70;;;;;;5060068;28;20991;-83
2022/06/23 00:14:45;;;;;;;3.23;3.03;;;24.00;55.90;;;;;;5040533;28;20537;-84
2022/06/23 00:17:34;;;;;;;2.90;2.70;;;24.00;55.90;;;;;;5057250;28;20444;-85
2022/06/23 00:20:15;;;;;;;3.67;2.87;;;23.80;56.10;;;;;;5043174;28;20937;-84
2022/06/23 00:22:47;;;;;;;2.73;2.50;;;23.80;56.30;;;;;;5059016;28;20479;-85
2022/06/23 00:25:42;;;;;;;3.00;2.70;;;23.90;57.10;;;;;;5068107;28;20492;-83
2022/06/23 00:28:28;;;;;;;3.30;2.80;;;23.90;57.40;;;;;;5061073;28;20484;-84
2022/06/23 00:30:58;;;;;;;5.30;2.83;;;24.10;57.60;;;;;;5040669;28;20777;-84
2022/06/23 00:33:29;;;;;;;3.37;3.07;;;24.00;57.40;;;;;;5063537;28;20483;-83
2022/06/23 00:35:58;;;;;;;3.80;3.50;;;23.80;58.10;;;;;;5042402;28;20460;-83
2022/06/23 00:38:31;;;;;;;3.10;2.90;;;23.80;58.60;;;;;;5059800;28;20444;-83
2022/06/23 00:40:59;;;;;;;3.33;2.80;;;23.70;58.70;;;;;;5040804;28;20505;-82
2022/06/23 00:43:28;;;;;;;3.27;2.97;;;23.80;58.40;;;;;;5053794;28;20475;-83
2022/06/23 00:46:07;;;;;;;3.90;3.60;;;23.70;58.30;;;;;;5048128;28;20479;-84
2022/06/23 00:48:42;;;;;;;3.43;3.10;;;23.70;58.30;;;;;;5045637;28;21878;-85
2022/06/23 00:51:17;;;;;;;3.20;2.90;;;23.50;58.80;;;;;;5067965;28;20442;-83
2022/06/23 00:53:53;;;;;;;2.80;2.70;;;23.30;58.10;;;;;;5046208;28;21332;-83
2022/06/23 00:56:38;;;;;;;3.20;3.00;;;23.20;58.10;;;;;;5036492;28;20455;-84
2022/06/23 00:59:20;;;;;;;5.60;3.50;;;23.50;58.30;;;;;;5066432;28;21225;-86
2022/06/23 01:01:59;;;;;;;3.80;2.93;;;23.50;57.90;;;;;;5060604;28;20463;-84
2022/06/23 01:04:47;;;;;;;2.70;2.50;;;23.60;57.70;;;;;;5073252;28;20470;-85
2022/06/23 01:07:38;;;;;;;3.70;3.00;;;23.50;57.70;;;;;;5081837;28;20481;-82
2022/06/23 01:10:26;;;;;;;2.90;2.70;;;23.20;57.90;;;;;;5061404;28;20470;-82
2022/06/23 01:13:33;;;;;;;3.43;3.13;;;23.20;57.50;;;;;;5071043;28;20486;-82
2022/06/23 01:16:06;;;;;;;3.03;2.70;;;23.20;57.70;;;;;;5062141;28;20588;-83
2022/06/23 01:18:39;;;;;;;3.37;3.13;;;23.20;57.70;;;;;;5063046;28;20470;-83
2022/06/23 01:21:18;;;;;;;3.60;2.97;;;23.10;58.10;;;;;;5045569;28;21023;-82
2022/06/23 01:24:11;;;;;;;4.77;3.20;;;23.30;58.50;;;;;;5061983;28;20565;-84
2022/06/23 01:27:11;;;;;;;3.30;3.00;;;23.30;58.90;;;;;;5004904;28;20952;-85
2022/06/23 01:29:48;;;;;;;4.40;3.20;;;23.40;59.40;;;;;;5044529;28;20530;-84
2022/06/23 01:32:34;;;;;;;3.17;2.87;;;23.20;59.70;;;;;;5063363;28;20430;-85
2022/06/23 01:35:24;;;;;;;3.40;3.10;;;23.10;59.70;;;;;;5045275;28;20486;-83
2022/06/23 01:38:00;;;;;;;3.13;2.73;;;23.20;59.10;;;;;;5043681;28;20464;-84
2022/06/23 01:40:41;;;;;;;3.23;2.93;;;23.10;58.70;;;;;;5060601;28;20521;-83
2022/06/23 01:43:40;;;;;;;4.60;2.80;;;22.90;59.40;;;;;;5049902;28;20472;-83
2022/06/23 01:46:17;;;;;;;3.07;2.83;;;23.00;59.70;;;;;;5046347;28;20986;-84
2022/06/23 01:48:55;;;;;;;6.10;2.93;;;22.90;59.50;;;;;;5047601;28;21092;-85
2022/06/23 01:51:27;;;;;;;3.50;3.20;;;22.90;59.40;;;;;;5048459;28;20455;-85
2022/06/23 01:54:07;;;;;;;3.17;2.80;;;22.80;59.20;;;;;;5050571;28;20490;-84
2022/06/23 01:57:00;;;;;;;3.20;3.10;;;22.90;59.30;;;;;;5046630;28;20459;-86
2022/06/23 01:59:40;;;;;;;5.43;2.80;;;23.00;59.40;;;;;;5045091;28;20479;-84
2022/06/23 02:02:10;;;;;;;2.70;2.60;;;23.00;59.30;;;;;;5062914;28;20455;-83
2022/06/23 02:04:52;;;;;;;5.37;3.10;;;23.00;59.80;;;;;;5061272;28;20479;-84
2022/06/23 02:07:24;;;;;;;2.90;2.70;;;23.00;60.30;;;;;;5060377;28;20476;-84
2022/06/23 02:10:13;;;;;;;3.80;3.00;;;23.00;60.60;;;;;;5043864;28;20549;-82
2022/06/23 02:12:48;;;;;;;3.73;2.90;;;22.80;60.80;;;;;;5028162;28;20554;-85
2022/06/23 02:15:22;;;;;;;2.80;2.70;;;22.60;61.00;;;;;;5062385;28;20452;-85
2022/06/23 02:17:57;;;;;;;5.00;3.47;;;22.80;61.90;;;;;;5042889;28;20474;-84
2022/06/23 02:20:42;;;;;;;3.87;3.00;;;22.70;61.50;;;;;;5044876;28;20546;-85
2022/06/23 02:23:30;;;;;;;6.13;2.93;;;22.80;61.50;;;;;;5057930;28;20494;-83
2022/06/23 02:26:16;;;;;;;3.20;2.93;;;22.80;61.80;;;;;;5047130;28;20468;-83
2022/06/23 02:28:57;;;;;;;4.67;2.93;;;22.70;61.80;;;;;;5047424;28;20459;-82
2022/06/23 02:31:32;;;;;;;3.43;3.20;;;22.60;61.70;;;;;;5073007;28;20485;-85
2022/06/23 02:34:17;;;;;;;3.60;3.30;;;22.70;61.80;;;;;;5058287;28;20474;-83
2022/06/23 02:37:07;;;;;;;3.20;3.00;;;22.70;61.60;;;;;;5083566;28;21137;-84
2022/06/23 02:39:54;;;;;;;3.70;3.17;;;22.80;60.50;;;;;;5064415;28;20542;-84
2022/06/23 02:42:30;;;;;;;3.60;3.40;;;22.70;61.70;;;;;;5065696;28;20469;-84
2022/06/23 02:45:01;;;;;;;2.90;2.70;;;22.50;62.40;;;;;;5063875;28;20466;-83
2022/06/23 02:47:40;;;;;;;3.97;2.87;;;22.50;62.50;;;;;;5065048;28;20475;-83
2022/06/23 02:50:37;;;;;;;3.10;2.90;;;22.60;62.70;;;;;;5084952;28;20444;-84
2022/06/23 02:53:22;;;;;;;3.40;3.10;;;22.60;62.30;;;;;;5082763;28;20472;-84
2022/06/23 02:56:20;;;;;;;3.30;3.00;;;22.50;62.30;;;;;;5087688;28;20445;-84
2022/06/23 02:58:56;;;;;;;3.73;3.23;;;22.50;60.80;;;;;;5085211;28;20746;-84
2022/06/23 03:01:37;;;;;;;3.43;3.13;;;22.60;59.60;;;;;;5089457;28;20505;-86
2022/06/23 03:04:23;;;;;;;3.53;2.70;;;22.50;60.60;;;;;;5065641;28;20471;-88
2022/06/23 03:07:03;;;;;;;3.20;2.90;;;22.40;60.10;;;;;;5085988;28;20562;-85
2022/06/23 03:09:46;;;;;;;3.37;2.53;;;22.40;59.90;;;;;;5071412;28;20454;-86
2022/06/23 03:12:22;;;;;;;3.70;2.40;;;22.30;60.30;;;;;;5042885;28;20443;-83
2022/06/23 03:15:25;;;;;;;4.30;3.13;;;22.20;62.20;;;;;;5056280;28;20482;-83
2022/06/23 03:17:56;;;;;;;2.70;2.50;;;22.30;62.60;;;;;;5028619;28;20494;-83
2022/06/23 03:20:26;;;;;;;3.87;2.90;;;22.50;60.90;;;;;;5058835;28;20459;-82
2022/06/23 03:23:04;;;;;;;3.10;2.90;;;22.40;61.50;;;;;;5050077;28;20566;-82
2022/06/23 03:26:06;;;;;;;3.10;2.90;;;22.30;62.40;;;;;;5029185;28;20466;-83
2022/06/23 03:28:39;;;;;;;3.73;2.97;;;22.20;63.30;;;;;;5005107;28;20477;-84
2022/06/23 03:31:16;;;;;;;3.57;3.37;;;22.00;63.60;;;;;;5016554;28;20463;-84
2022/06/23 03:33:51;;;;;;;3.93;2.97;;;22.10;66.10;;;;;;5028235;28;20485;-83
2022/06/23 03:36:43;;;;;;;3.50;3.30;;;22.20;68.40;;;;;;5045542;28;20530;-82
2022/06/23 03:42:44;;;;;;;4.10;2.80;;;21.80;66.80;;;;;;5062809;28;20463;-83
2022/06/23 03:45:25;;;;;;;6.63;3.00;;;21.70;65.70;;;;;;5042959;28;20458;-86
2022/06/23 03:48:07;;;;;;;3.20;2.90;;;21.80;64.80;;;;;;5066846;28;20976;-86
2022/06/23 03:50:43;;;;;;;3.00;2.70;;;22.00;64.10;;;;;;5048095;28;21119;-84
2022/06/23 03:53:50;;;;;;;8.70;3.57;;;21.80;64.30;;;;;;5046348;28;20496;-86
2022/06/23 03:56:23;;;;;;;2.97;2.77;;;22.00;64.60;;;;;;5063892;28;20520;-82
2022/06/23 03:59:13;;;;;;;2.87;2.67;;;22.10;64.60;;;;;;5026590;28;20487;-83
2022/06/23 04:01:52;;;;;;;2.67;2.47;;;22.00;64.80;;;;;;5045841;28;20953;-85
2022/06/23 04:04:37;;;;;;;3.20;3.00;;;22.10;64.50;;;;;;5040577;28;20545;-84
2022/06/23 04:07:27;;;;;;;4.00;3.23;;;22.10;64.50;;;;;;5060777;28;20560;-83
2022/06/23 04:10:01;;;;;;;5.83;3.63;;;22.10;62.90;;;;;;5060320;28;20457;-83
2022/06/23 04:12:36;;;;;;;4.00;2.80;;;22.20;63.70;;;;;;5045077;28;20452;-84
2022/06/23 04:15:08;;;;;;;3.23;2.30;;;22.10;63.40;;;;;;5061604;28;20424;-86
2022/06/23 04:17:45;;;;;;;3.00;2.80;;;22.00;62.90;;;;;;5047200;28;20463;-82
2022/06/23 04:20:22;;;;;;;3.57;3.17;;;21.80;63.10;;;;;;5043550;28;20482;-83
2022/06/23 04:23:01;;;;;;;4.00;2.77;;;22.00;63.50;;;;;;5064124;28;20471;-85
2022/06/23 04:25:45;;;;;;;3.50;3.20;;;21.90;63.70;;;;;;5065108;28;20839;-83
2022/06/23 04:28:18;;;;;;;3.77;3.47;;;22.00;63.10;;;;;;5044929;28;20967;-85
2022/06/23 04:30:46;;;;;;;7.90;3.63;;;22.00;63.70;;;;;;5060192;28;20457;-82
2022/06/23 04:33:18;;;;;;;4.33;3.20;;;22.00;64.10;;;;;;5063412;28;20514;-84
2022/06/23 04:35:50;;;;;;;4.47;3.20;;;22.00;63.90;;;;;;5063214;28;20451;-84
2022/06/23 04:38:20;;;;;;;3.70;3.40;;;22.10;63.90;;;;;;5041045;28;20910;-82
2022/06/23 04:41:09;;;;;;;5.70;3.33;;;22.00;63.80;;;;;;5066510;28;20831;-84
2022/06/23 04:43:44;;;;;;;3.37;3.03;;;22.00;63.60;;;;;;5046516;28;20579;-86
2022/06/23 04:46:38;;;;;;;4.73;3.30;;;22.10;63.50;;;;;;5046548;28;20525;-85
2022/06/23 04:49:19;;;;;;;2.93;2.73;;;22.10;64.40;;;;;;5063704;28;20562;-87
2022/06/23 04:51:53;;;;;;;3.20;3.00;;;22.10;63.60;;;;;;5065825;28;20455;-83
2022/06/23 04:54:28;;;;;;;3.50;3.00;;;22.10;63.70;;;;;;5045940;28;20477;-83
2022/06/23 04:57:02;;;;;;;3.03;2.80;;;22.00;64.10;;;;;;5055477;28;20469;-85
2022/06/23 04:59:38;;;;;;;2.90;2.70;;;22.00;64.40;;;;;;5068206;28;20482;-83
2022/06/23 05:02:36;;;;;;;5.13;3.50;;;22.10;64.00;;;;;;5049796;28;20515;-80
2022/06/23 05:05:15;;;;;;;3.70;3.40;;;22.20;64.30;;;;;;5061635;28;20568;-83
2022/06/23 05:07:55;;;;;;;4.93;4.40;;;22.20;63.80;;;;;;5064752;28;20513;-84
2022/06/23 05:10:29;;;;;;;4.53;3.40;;;22.10;64.20;;;;;;5061077;28;20555;-84
2022/06/23 05:13:12;;;;;;;6.87;5.40;;;22.10;64.50;;;;;;5046947;28;20486;-84
2022/06/23 05:16:11;;;;;;;8.67;3.53;;;22.20;65.30;;;;;;5063110;28;20467;-83
2022/06/23 05:18:49;;;;;;;3.47;3.17;;;22.20;65.10;;;;;;5062862;28;20460;-85
2022/06/23 05:21:24;;;;;;;3.87;3.47;;;22.20;64.80;;;;;;5057953;28;21242;-85
2022/06/23 05:23:59;;;;;;;3.80;3.40;;;22.30;65.70;;;;;;5044192;28;20484;-85
2022/06/23 05:26:43;;;;;;;4.07;3.33;;;22.20;65.50;;;;;;5058357;28;20554;-86
2022/06/23 05:29:29;;;;;;;3.40;2.73;;;22.20;65.50;;;;;;5044271;28;20490;-85
2022/06/23 05:32:03;;;;;;;3.30;3.10;;;22.40;66.10;;;;;;5044722;28;20447;-83
2022/06/23 05:34:34;;;;;;;4.50;3.40;;;22.50;65.40;;;;;;5062047;28;20470;-84
2022/06/23 05:37:37;;;;;;;5.27;3.77;;;22.50;66.00;;;;;;5043135;28;20543;-84
2022/06/23 05:40:10;;;;;;;7.33;3.30;;;22.70;66.50;;;;;;4997652;28;20452;-84
2022/06/23 05:42:41;;;;;;;4.60;3.70;;;22.90;66.40;;;;;;5062428;28;20468;-84
2022/06/23 05:45:17;;;;;;;4.67;3.87;;;22.70;66.30;;;;;;5062628;28;20542;-86
2022/06/23 05:47:44;;;;;;;8.53;3.90;;;22.90;66.70;;;;;;5048449;28;20485;-82
2022/06/23 05:50:17;;;;;;;3.97;3.57;;;22.80;66.20;;;;;;5062506;28;20534;-84
2022/06/23 05:52:53;;;;;;;3.33;3.03;;;22.70;67.10;;;;;;5064333;28;20522;-84
2022/06/23 05:55:25;;;;;;;3.50;3.10;;;22.80;67.20;;;;;;5006360;28;20481;-82
2022/06/23 05:58:30;;;;;;;4.50;3.37;;;22.70;67.70;;;;;;5049447;28;20459;-84
2022/06/23 06:01:10;;;;;;;4.00;3.60;;;22.50;68.40;;;;;;5032987;28;20542;-85
2022/06/23 06:03:52;;;;;;;5.60;3.90;;;22.70;69.20;;;;;;5066486;28;20478;-83
2022/06/23 06:06:19;;;;;;;5.27;3.50;;;22.80;69.30;;;;;;5049586;28;20458;-84
2022/06/23 06:11:41;;;;;;;3.43;3.13;;;22.80;69.90;;;;;;5066643;28;20459;-83
2022/06/23 06:14:13;;;;;;;5.43;3.63;;;23.00;69.70;;;;;;5052175;28;20460;-84
2022/06/23 06:16:42;;;;;;;4.40;3.83;;;23.20;69.60;;;;;;5048334;28;20546;-85
2022/06/23 06:19:14;;;;;;;3.53;3.23;;;23.30;69.60;;;;;;5064424;28;20457;-83
2022/06/23 06:21:41;;;;;;;5.33;3.80;;;23.40;69.90;;;;;;5062835;28;20837;-86
2022/06/23 06:24:25;;;;;;;7.60;3.77;;;23.20;70.30;;;;;;5064207;28;20846;-85
2022/06/23 06:26:54;;;;;;;4.60;4.20;;;23.30;70.50;;;;;;5061307;28;20466;-83
2022/06/23 06:29:29;;;;;;;5.43;4.73;;;23.30;70.60;;;;;;5060297;28;20910;-83
2022/06/23 06:32:25;;;;;;;4.40;4.00;;;23.20;71.50;;;;;;5062152;28;20451;-83
2022/06/23 06:35:13;;;;;;;4.83;3.90;;;23.40;71.90;;;;;;5047120;28;20503;-83
2022/06/23 06:37:44;;;;;;;5.20;4.07;;;23.50;71.40;;;;;;5047516;28;20461;-83
2022/06/23 06:40:12;;;;;;;5.10;4.60;;;23.50;72.00;;;;;;5046191;28;20470;-83
2022/06/23 06:42:44;;;;;;;5.10;3.70;;;23.50;71.90;;;;;;5045315;28;21100;-84
2022/06/23 06:45:14;;;;;;;4.03;3.70;;;23.20;72.20;;;;;;5063291;28;20452;-84
2022/06/23 06:47:43;;;;;;;4.53;3.63;;;23.50;72.50;;;;;;5077535;28;20486;-82
2022/06/23 06:50:23;;;;;;;4.30;3.90;;;23.40;72.30;;;;;;5075422;28;20462;-84
2022/06/23 06:52:51;;;;;;;5.20;3.57;;;23.30;73.80;;;;;;5078533;28;20467;-83
2022/06/23 06:55:38;;;;;;;4.97;4.30;;;23.20;74.30;;;;;;5050252;28;20447;-85
2022/06/23 06:58:18;;;;;;;6.73;4.47;;;23.60;74.60;;;;;;5048416;28;20459;-84
2022/06/23 07:01:01;;;;;;;5.67;4.30;;;24.00;73.60;;;;;;5049374;28;20505;-85
2022/06/23 07:03:29;;;;;;;4.73;4.43;;;24.20;73.10;;;;;;5051458;28;21359;-83
2022/06/23 07:06:07;;;;;;;5.13;4.63;;;23.90;73.70;;;;;;5063316;28;20447;-87
2022/06/23 07:08:58;;;;;;;8.40;4.67;;;24.20;74.20;;;;;;5059971;28;20565;-85
2022/06/23 07:11:42;;;;;;;4.20;3.80;;;24.30;73.40;;;;;;5063914;28;20831;-84
2022/06/23 07:14:31;;;;;;;11.63;4.57;;;24.40;73.80;;;;;;5046589;28;20502;-85
2022/06/23 07:17:07;;;;;;;8.20;4.43;;;24.50;73.80;;;;;;5052535;28;20442;-83
2022/06/23 07:19:49;;;;;;;5.30;4.80;;;24.60;73.90;;;;;;5047031;28;20460;-84
2022/06/23 07:22:42;;;;;;;8.20;4.53;;;24.70;74.00;;;;;;5063802;28;20483;-83
2022/06/23 07:25:20;;;;;;;8.53;4.23;;;24.80;73.70;;;;;;5049034;28;20475;-87
2022/06/23 07:27:56;;;;;;;6.67;4.90;;;24.80;74.10;;;;;;5066616;28;20483;-85
2022/06/23 07:30:35;;;;;;;7.10;5.33;;;24.70;74.50;;;;;;5053020;28;20810;-84
2022/06/23 07:33:10;;;;;;;4.87;4.47;;;25.00;74.20;;;;;;5057028;28;20557;-84
2022/06/23 07:35:48;;;;;;;5.57;5.03;;;25.00;74.70;;;;;;5070282;28;20518;-85
2022/06/23 07:38:34;;;;;;;6.30;4.37;;;25.10;74.90;;;;;;5066915;28;20536;-86
2022/06/23 07:41:24;;;;;;;5.53;4.60;;;25.30;74.80;;;;;;5067669;28;20447;-85
2022/06/23 07:44:03;;;;;;;6.27;5.10;;;25.50;74.10;;;;;;5056436;28;20466;-87
2022/06/23 07:46:34;;;;;;;7.20;4.90;;;25.40;74.50;;;;;;5070046;28;20443;-84
2022/06/23 07:49:01;;;;;;;5.63;5.03;;;25.40;75.00;;;;;;5069764;28;20505;-86
2022/06/23 07:51:27;;;;;;;6.77;4.53;;;25.30;76.00;;;;;;5049606;28;20453;-87
2022/06/23 07:53:56;;;;;;;10.53;5.17;;;25.50;75.30;;;;;;5066576;28;20465;-84
2022/06/23 07:56:30;;;;;;;6.17;5.17;;;25.50;75.50;;;;;;5064205;28;20467;-83
2022/06/23 07:59:01;;;;;;;5.77;4.73;;;25.70;74.50;;;;;;5067557;28;20460;-84
2022/06/23 08:02:01;;;;;;;5.30;4.80;;;25.50;75.60;;;;;;5065711;28;20459;-86
2022/06/23 08:04:46;;;;;;;8.40;4.33;;;25.70;75.10;;;;;;5038756;28;20474;-85
2022/06/23 08:07:13;;;;;;;5.63;4.50;;;26.00;75.10;;;;;;5063860;28;20472;-86
2022/06/23 08:09:46;;;;;;;5.43;4.80;;;26.20;74.30;;;;;;5065530;28;20496;-84
2022/06/23 08:18:28;;;;;;;6.20;4.90;;;26.00;75.30;;;;;;5070239;28;20455;-87
2022/06/23 08:21:34;;;;;;;7.30;5.47;;;25.90;76.30;;;;;;5050588;28;20464;-85
2022/06/23 08:24:13;;;;;;;5.60;4.73;;;26.30;75.50;;;;;;5065236;28;20470;-87
2022/06/23 08:26:44;;;;;;;6.10;5.13;;;26.20;76.30;;;;;;5064546;28;20457;-86
2022/06/23 08:29:14;;;;;;;6.50;5.17;;;26.70;74.60;;;;;;5065248;28;20465;-86
2022/06/23 08:31:41;;;;;;;4.93;4.43;;;26.90;74.10;;;;;;5066925;28;20443;-85
2022/06/23 08:34:26;;;;;;;6.07;4.77;;;26.80;73.40;;;;;;5068825;28;21086;-85
2022/06/23 08:37:03;;;;;;;7.93;5.93;;;27.20;72.20;;;;;;5046592;28;20479;-84
2022/06/23 08:39:54;;;;;;;7.10;5.10;;;27.30;71.10;;;;;;5065824;28;20459;-83
2022/06/23 08:42:38;;;;;;;6.13;5.57;;;28.00;68.50;;;;;;5052155;28;20447;-84
2022/06/23 08:45:22;;;;;;;6.60;5.07;;;28.40;66.00;;;;;;5070098;28;20462;-83
2022/06/23 08:48:05;;;;;;;5.63;5.20;;;28.50;65.10;;;;;;5069542;28;20472;-85
2022/06/23 08:50:49;;;;;;;5.70;5.20;;;28.30;63.60;;;;;;5066273;28;20470;-85
2022/06/23 08:53:31;;;;;;;6.30;4.80;;;28.30;63.30;;;;;;5048179;28;20452;-83
2022/06/23 08:56:26;;;;;;;7.97;4.70;;;28.10;61.80;;;;;;5063947;28;20439;-84
2022/06/23 08:59:25;;;;;;;5.53;4.50;;;28.20;61.10;;;;;;5055784;28;20454;-82
2022/06/23 09:02:27;;;;;;;6.67;5.33;;;29.10;59.00;;;;;;5085653;28;20440;-87
2022/06/23 09:05:38;;;;;;;6.00;4.93;;;29.50;57.30;;;;;;5069604;28;20454;-86
2022/06/23 09:08:36;;;;;;;5.00;4.60;;;29.50;57.00;;;;;;5073832;28;20451;-86
2022/06/23 09:11:27;;;;;;;5.20;4.70;;;29.60;55.50;;;;;;5089335;28;20478;-86
2022/06/23 09:14:00;;;;;;;5.63;5.00;;;29.30;55.30;;;;;;5093395;28;20465;-87
2022/06/23 09:16:39;;;;;;;6.60;4.77;;;29.50;54.50;;;;;;5084655;28;20507;-86
2022/06/23 09:19:21;;;;;;;5.80;4.80;;;29.80;55.30;;;;;;5076069;28;20621;-85
2022/06/23 09:22:07;;;;;;;5.50;5.00;;;30.00;55.20;;;;;;5063717;28;20449;-85
2022/06/23 09:24:55;;;;;;;7.27;5.10;;;29.60;55.50;;;;;;5058797;28;20471;-84
2022/06/23 09:27:35;;;;;;;6.37;4.70;;;30.40;55.60;;;;;;5042836;28;20808;-85
2022/06/23 09:30:14;;;;;;;5.40;4.50;;;30.70;54.50;;;;;;5041444;28;20559;-83
2022/06/23 09:33:03;;;;;;;5.00;4.60;;;30.80;55.30;;;;;;5061325;28;21557;-83
2022/06/23 09:36:10;;;;;;;4.90;4.40;;;31.20;54.50;;;;;;5046065;28;20519;-84
2022/06/23 09:38:59;;;;;;;6.10;5.53;;;31.60;53.40;;;;;;5043452;28;20474;-84
2022/06/23 09:41:45;;;;;;;5.60;5.10;;;32.20;51.60;;;;;;5057581;28;20455;-84
2022/06/23 09:44:26;;;;;;;5.20;4.40;;;32.10;51.60;;;;;;5061912;28;20480;-84
2022/06/23 09:47:26;;;;;;;5.37;4.97;;;32.10;50.80;;;;;;5048394;28;20455;-84
2022/06/23 09:50:09;;;;;;;7.10;4.70;;;32.30;51.30;;;;;;5047574;28;20515;-86
2022/06/23 09:53:08;;;;;;;7.90;4.93;;;33.40;50.20;;;;;;5059307;28;20454;-87
2022/06/23 09:55:41;;;;;;;4.93;4.53;;;33.50;48.80;;;;;;5051966;28;20542;-84
2022/06/23 09:58:43;;;;;;;4.80;4.40;;;33.20;48.80;;;;;;5066835;28;20452;-85
2022/06/23 10:01:12;;;;;;;4.80;4.37;;;33.30;48.80;;;;;;5038470;28;20441;-83
2022/06/23 10:03:55;;;;;;;5.30;4.70;;;33.20;48.80;;;;;;5060102;28;20476;-85
2022/06/23 10:06:46;;;;;;;6.33;5.63;;;33.70;47.70;;;;;;5055759;28;20434;-85
2022/06/23 10:09:36;;;;;;;9.70;8.70;;;33.90;47.30;;;;;;5046880;28;20479;-84
2022/06/23 10:12:35;;;;;;;4.87;4.47;;;34.00;47.10;;;;;;5041795;28;20452;-83
2022/06/23 10:15:34;;;;;;;4.77;4.40;;;33.60;47.30;;;;;;5038290;28;20453;-83
2022/06/23 10:18:32;;;;;;;6.17;4.80;;;34.70;45.70;;;;;;5014468;28;20463;-85
2022/06/23 10:21:10;;;;;;;5.30;4.33;;;34.80;44.60;;;;;;5056263;28;20448;-86
2022/06/23 10:23:43;;;;;;;4.70;4.30;;;34.20;45.70;;;;;;5057967;28;20471;-84
2022/06/23 10:26:49;;;;;;;5.57;4.97;;;33.60;46.80;;;;;;5058371;28;20451;-86
2022/06/23 10:29:37;;;;;;;4.73;4.30;;;34.20;47.20;;;;;;5040267;28;20513;-83
2022/06/23 10:32:46;;;;;;;5.20;4.00;;;34.70;46.10;;;;;;5059102;28;20559;-84
2022/06/23 10:35:51;;;;;;;5.17;4.67;;;34.40;44.50;;;;;;5035792;28;20488;-84
2022/06/23 10:38:23;;;;;;;4.20;3.83;;;34.70;44.80;;;;;;5058098;28;20507;-85
2022/06/23 10:41:16;;;;;;;4.40;3.93;;;35.00;43.60;;;;;;5041376;28;20740;-87
2022/06/23 10:44:09;;;;;;;4.90;4.30;;;34.40;44.40;;;;;;5040656;28;20483;-85
2022/06/23 10:46:49;;;;;;;5.57;4.77;;;34.90;43.60;;;;;;5041205;28;20546;-83
2022/06/23 10:49:53;;;;;;;4.90;4.60;;;35.40;43.50;;;;;;5056318;28;20902;-84
2022/06/23 10:52:28;;;;;;;5.23;4.73;;;35.10;43.20;;;;;;5060331;28;21442;-84
2022/06/23 10:55:15;;;;;;;4.93;4.33;;;34.70;43.50;;;;;;5053066;28;20991;-83
2022/06/23 10:58:14;;;;;;;4.83;4.33;;;35.00;43.40;;;;;;5056152;28;22348;-84
2022/06/23 11:00:59;;;;;;;7.13;5.10;;;34.70;43.30;;;;;;5059548;28;20448;-83
2022/06/23 11:03:38;;;;;;;5.50;5.10;;;35.10;43.50;;;;;;5063646;28;21047;-83
2022/06/23 11:06:35;;;;;;;4.93;4.10;;;35.80;42.50;;;;;;5059238;28;20446;-84
2022/06/23 11:09:08;;;;;;;4.53;4.13;;;35.90;42.40;;;;;;5061741;28;20483;-84
2022/06/23 11:11:53;;;;;;;6.60;3.80;;;35.70;42.30;;;;;;5061845;28;20445;-84
2022/06/23 11:14:48;;;;;;;4.70;4.30;;;34.80;43.00;;;;;;5062810;28;20566;-87
2022/06/23 11:17:41;;;;;;;5.40;4.37;;;34.60;43.60;;;;;;5043667;28;20468;-85
2022/06/23 11:20:21;;;;;;;4.97;4.20;;;34.90;43.00;;;;;;5055967;28;20464;-83
2022/06/23 11:23:04;;;;;;;4.93;4.20;;;34.30;43.80;;;;;;5062334;28;20475;-86
2022/06/23 11:26:03;;;;;;;5.17;4.40;;;34.80;43.50;;;;;;5064048;28;20451;-85
2022/06/23 11:28:46;;;;;;;4.60;4.20;;;35.50;43.00;;;;;;5059505;28;20460;-83
2022/06/23 11:31:24;;;;;;;4.50;4.10;;;35.70;42.40;;;;;;5062620;28;20456;-86
2022/06/23 11:34:10;;;;;;;4.60;4.20;;;35.10;43.20;;;;;;5064686;28;20477;-84
2022/06/23 11:36:40;;;;;;;5.80;5.37;;;34.80;43.50;;;;;;5061192;28;20443;-84
2022/06/23 11:39:24;;;;;;;4.40;4.00;;;34.90;43.50;;;;;;5036256;28;20458;-84
2022/06/23 11:41:59;;;;;;;6.13;4.73;;;34.90;42.80;;;;;;5051390;28;20445;-86
2022/06/23 11:44:44;;;;;;;4.50;4.10;;;34.50;43.60;;;;;;5058737;28;20474;-83
2022/06/23 11:47:29;;;;;;;4.30;4.00;;;34.40;43.50;;;;;;5060158;28;20447;-84
2022/06/23 11:50:10;;;;;;;5.20;4.80;;;33.50;44.70;;;;;;5056117;28;20494;-85
2022/06/23 11:52:52;;;;;;;5.07;4.57;;;34.00;45.00;;;;;;5057936;28;20498;-85
2022/06/23 11:55:22;;;;;;;4.73;4.33;;;35.00;43.80;;;;;;5060814;28;21062;-85
2022/06/23 11:58:13;;;;;;;5.03;4.63;;;35.40;43.00;;;;;;5038718;28;20447;-83
2022/06/23 12:01:04;;;;;;;4.93;4.43;;;34.90;43.90;;;;;;5059353;28;20455;-83
2022/06/23 12:04:00;;;;;;;4.13;3.70;;;34.90;43.60;;;;;;5060966;28;21006;-87
2022/06/23 12:06:50;;;;;;;4.97;4.57;;;34.50;44.40;;;;;;5039862;28;20457;-82
2022/06/23 12:09:32;;;;;;;4.70;4.40;;;35.80;42.80;;;;;;5060942;28;20463;-85
2022/06/23 12:12:01;;;;;;;4.40;4.10;;;36.00;43.40;;;;;;5039639;28;20460;-84
2022/06/23 12:14:30;;;;;;;4.77;4.37;;;36.00;42.50;;;;;;5055905;28;20477;-85
2022/06/23 12:17:14;;;;;;;5.07;4.67;;;35.30;43.10;;;;;;5020371;28;20465;-82
2022/06/23 12:19:56;;;;;;;5.57;4.30;;;35.40;43.00;;;;;;5058594;28;20499;-84
2022/06/23 12:22:33;;;;;;;4.03;3.53;;;35.60;42.40;;;;;;5058904;28;20458;-85
2022/06/23 12:25:18;;;;;;;4.80;4.40;;;35.30;41.80;;;;;;5052122;28;20460;-83
2022/06/23 12:27:50;;;;;;;5.43;4.23;;;35.10;42.70;;;;;;5063744;28;20445;-82
2022/06/23 12:30:19;;;;;;;4.63;4.03;;;35.10;43.30;;;;;;5065554;28;20487;-85
2022/06/23 12:33:11;;;;;;;5.47;4.70;;;35.50;43.00;;;;;;5067343;28;20479;-82
2022/06/23 12:35:48;;;;;;;7.00;4.60;;;34.90;43.50;;;;;;5042271;28;20457;-83
2022/06/23 12:38:34;;;;;;;6.00;4.60;;;34.90;43.40;;;;;;5063064;28;21050;-86
2022/06/23 12:41:12;;;;;;;5.40;4.30;;;34.80;43.60;;;;;;5059819;28;20450;-82
2022/06/23 12:44:21;;;;;;;5.90;5.00;;;34.90;43.90;;;;;;5062999;28;21312;-83
2022/06/23 12:47:04;;;;;;;4.87;4.47;;;34.80;43.80;;;;;;5063072;28;20474;-83
2022/06/23 12:49:34;;;;;;;6.30;4.67;;;34.90;43.60;;;;;;5043238;28;20478;-83
2022/06/23 12:52:29;;;;;;;10.00;5.00;;;34.40;44.50;;;;;;5042397;28;20451;-84
2022/06/23 12:55:14;;;;;;;8.43;4.07;;;34.20;45.10;;;;;;5060770;28;20532;-85
2022/06/23 12:58:20;;;;;;;4.97;4.30;;;34.10;45.20;;;;;;5061474;28;20963;-84
2022/06/23 13:00:51;;;;;;;4.83;4.43;;;34.40;44.70;;;;;;5062987;28;20448;-84
2022/06/23 13:03:28;;;;;;;4.97;4.47;;;33.80;45.80;;;;;;5064219;28;20821;-84
2022/06/23 13:06:29;;;;;;;4.50;4.10;;;34.10;45.30;;;;;;5048292;28;20526;-84
2022/06/23 13:09:13;;;;;;;5.70;5.10;;;34.50;44.40;;;;;;5051228;28;20471;-83
2022/06/23 13:11:53;;;;;;;7.60;4.97;;;34.30;44.80;;;;;;5062762;28;20459;-85
2022/06/23 13:14:44;;;;;;;5.00;4.50;;;34.40;45.20;;;;;;5042761;28;21128;-83
2022/06/23 13:17:36;;;;;;;6.83;4.40;;;34.20;45.40;;;;;;5062904;28;21085;-86
2022/06/23 13:20:20;;;;;;;8.30;4.83;;;34.40;44.90;;;;;;5044926;28;20466;-83
2022/06/23 13:23:02;;;;;;;6.03;4.60;;;34.40;44.90;;;;;;5044395;28;20475;-84
2022/06/23 13:25:34;;;;;;;4.80;4.30;;;34.20;44.90;;;;;;5060334;28;20460;-86
2022/06/23 13:28:05;;;;;;;4.70;4.30;;;34.00;45.30;;;;;;5057843;28;20515;-84
2022/06/23 13:30:49;;;;;;;6.73;4.80;;;33.80;44.70;;;;;;5058154;28;20468;-83
2022/06/23 13:33:21;;;;;;;4.83;4.43;;;33.60;46.00;;;;;;5058443;28;20471;-83
2022/06/23 13:36:03;;;;;;;5.37;4.50;;;33.40;46.70;;;;;;5062476;28;20454;-82
2022/06/23 13:38:40;;;;;;;5.43;4.90;;;33.60;46.60;;;;;;5069811;28;20448;-85
2022/06/23 13:41:18;;;;;;;7.00;5.00;;;33.60;46.60;;;;;;5074046;28;20436;-86
2022/06/23 13:44:14;;;;;;;6.57;4.40;;;33.80;46.20;;;;;;5068351;28;20579;-87
2022/06/23 13:46:54;;;;;;;5.17;4.67;;;33.50;45.60;;;;;;5069164;28;20527;-86
2022/06/23 13:49:29;;;;;;;4.63;3.57;;;33.20;46.10;;;;;;5057022;28;20494;-86
2022/06/23 13:52:08;;;;;;;5.33;4.60;;;33.10;46.50;;;;;;5086342;28;20444;-85
2022/06/23 13:54:37;;;;;;;7.57;5.27;;;33.20;46.00;;;;;;5072943;28;20472;-85
2022/06/23 13:57:20;;;;;;;7.50;4.83;;;33.30;45.10;;;;;;5056745;28;20530;-84
2022/06/23 13:59:59;;;;;;;5.70;4.80;;;33.30;45.80;;;;;;5071832;28;20443;-85
2022/06/23 14:03:01;;;;;;;5.10;4.60;;;33.30;46.30;;;;;;5055093;28;20463;-85
2022/06/23 14:05:38;;;;;;;5.00;4.03;;;33.40;45.80;;;;;;5081728;28;20468;-87
2022/06/23 14:08:35;;;;;;;5.03;4.60;;;33.50;45.20;;;;;;5089217;28;20418;-86
2022/06/23 14:11:15;;;;;;;5.40;4.80;;;33.30;45.80;;;;;;5048266;28;20533;-85
2022/06/23 14:13:59;;;;;;;5.50;5.00;;;33.40;46.10;;;;;;5065637;28;20478;-86